Aviation Digital Data Service (ADDS)

Output produced by METARs form (1754 UTC 12 December 2017)
found at http://aviationweather.gov/adds/metars/
 
KBDL 121727Z 1218/1324 34006KT 3SM -RA BR FEW004 OVC010 
     FM122300 25004KT 6SM BR VCSH OVC020 
     FM130100 27005KT P6SM BKN035 
     FM130200 30007G18KT P6SM BKN050 
     FM132000 28014G30KT P6SM SCT040 
     FM132200 28012G28KT P6SM FEW200